sensor_id;sensor_type;location;lat;lon;timestamp;pressure;altitude;pressure_sealevel;temperature;humidity
45541;BME280;31265;49.680;8.608;2023-12-04T00:00:00;100804.94;;;-4.52;100.00
45541;BME280;31265;49.680;8.608;2023-12-04T00:02:39;100816.22;;;-4.54;100.00
45541;BME280;31265;49.680;8.608;2023-12-04T00:05:07;100810.47;;;-4.56;100.00
45541;BME280;31265;49.680;8.608;2023-12-04T00:07:36;100801.91;;;-4.54;100.00
45541;BME280;31265;49.680;8.608;2023-12-04T00:10:04;100805.53;;;-4.57;100.00
45541;BME280;31265;49.680;8.608;2023-12-04T00:12:32;100796.47;;;-4.63;100.00
45541;BME280;31265;49.680;8.608;2023-12-04T00:15:01;100801.72;;;-4.69;100.00
45541;BME280;31265;49.680;8.608;2023-12-04T00:17:29;100794.03;;;-4.70;100.00
45541;BME280;31265;49.680;8.608;2023-12-04T00:19:58;100785.28;;;-4.74;100.00
45541;BME280;31265;49.680;8.608;2023-12-04T00:22:27;100785.88;;;-4.80;100.00
45541;BME280;31265;49.680;8.608;2023-12-04T00:24:56;100780.91;;;-4.81;100.00
45541;BME280;31265;49.680;8.608;2023-12-04T00:27:24;100776.22;;;-4.81;100.00
45541;BME280;31265;49.680;8.608;2023-12-04T00:29:53;100778.31;;;-4.85;100.00
45541;BME280;31265;49.680;8.608;2023-12-04T00:32:21;100771.53;;;-4.89;100.00
45541;BME280;31265;49.680;8.608;2023-12-04T00:34:49;100784.00;;;-4.92;100.00
45541;BME280;31265;49.680;8.608;2023-12-04T00:37:19;100777.97;;;-4.96;100.00
45541;BME280;31265;49.680;8.608;2023-12-04T00:39:47;100780.19;;;-5.04;100.00
45541;BME280;31265;49.680;8.608;2023-12-04T00:42:15;100774.59;;;-5.09;100.00
45541;BME280;31265;49.680;8.608;2023-12-04T00:44:43;100769.28;;;-5.13;100.00
45541;BME280;31265;49.680;8.608;2023-12-04T00:47:11;100767.78;;;-5.14;100.00
45541;BME280;31265;49.680;8.608;2023-12-04T00:49:39;100768.81;;;-5.21;100.00
45541;BME280;31265;49.680;8.608;2023-12-04T00:52:08;100757.66;;;-5.23;100.00
45541;BME280;31265;49.680;8.608;2023-12-04T00:54:39;100756.16;;;-5.24;100.00
45541;BME280;31265;49.680;8.608;2023-12-04T00:57:08;100763.66;;;-5.28;100.00
45541;BME280;31265;49.680;8.608;2023-12-04T00:59:36;100758.66;;;-5.29;100.00
45541;BME280;31265;49.680;8.608;2023-12-04T01:02:06;100754.91;;;-5.32;100.00
45541;BME280;31265;49.680;8.608;2023-12-04T01:04:34;100753.72;;;-5.31;100.00
45541;BME280;31265;49.680;8.608;2023-12-04T01:07:02;100750.69;;;-5.33;100.00
45541;BME280;31265;49.680;8.608;2023-12-04T01:09:31;100742.16;;;-5.31;100.00
45541;BME280;31265;49.680;8.608;2023-12-04T01:12:00;100743.78;;;-5.34;100.00
45541;BME280;31265;49.680;8.608;2023-12-04T01:14:28;100744.97;;;-5.35;100.00
45541;BME280;31265;49.680;8.608;2023-12-04T01:16:56;100733.06;;;-5.37;100.00
45541;BME280;31265;49.680;8.608;2023-12-04T01:19:25;100731.25;;;-5.41;100.00
45541;BME280;31265;49.680;8.608;2023-12-04T01:21:53;100731.25;;;-5.41;100.00
45541;BME280;31265;49.680;8.608;2023-12-04T01:24:21;100733.22;;;-5.41;100.00
45541;BME280;31265;49.680;8.608;2023-12-04T01:26:49;100734.41;;;-5.42;100.00
45541;BME280;31265;49.680;8.608;2023-12-04T01:29:19;100729.88;;;-5.45;100.00
45541;BME280;31265;49.680;8.608;2023-12-04T01:31:47;100713.97;;;-5.43;100.00
45541;BME280;31265;49.680;8.608;2023-12-04T01:34:15;100706.28;;;-5.45;100.00
45541;BME280;31265;49.680;8.608;2023-12-04T01:36:43;100712.91;;;-5.46;100.00
45541;BME280;31265;49.680;8.608;2023-12-04T01:39:11;100717.09;;;-5.45;100.00
45541;BME280;31265;49.680;8.608;2023-12-04T01:41:41;100715.78;;;-5.40;100.00
45541;BME280;31265;49.680;8.608;2023-12-04T01:44:09;100715.22;;;-5.35;100.00
45541;BME280;31265;49.680;8.608;2023-12-04T01:46:39;100710.53;;;-5.34;100.00
45541;BME280;31265;49.680;8.608;2023-12-04T01:49:07;100704.38;;;-5.35;100.00
45541;BME280;31265;49.680;8.608;2023-12-04T01:51:35;100708.63;;;-5.34;100.00
45541;BME280;31265;49.680;8.608;2023-12-04T01:54:03;100709.78;;;-5.35;100.00
45541;BME280;31265;49.680;8.608;2023-12-04T01:56:33;100698.97;;;-5.35;100.00
45541;BME280;31265;49.680;8.608;2023-12-04T01:59:02;100708.16;;;-5.32;100.00
45541;BME280;31265;49.680;8.608;2023-12-04T02:01:30;100693.56;;;-5.35;100.00
45541;BME280;31265;49.680;8.608;2023-12-04T02:04:00;100698.84;;;-5.31;100.00
45541;BME280;31265;49.680;8.608;2023-12-04T02:06:29;100697.34;;;-5.32;100.00
45541;BME280;31265;49.680;8.608;2023-12-04T02:08:57;100708.91;;;-5.32;100.00
45541;BME280;31265;49.680;8.608;2023-12-04T02:11:25;100701.09;;;-5.30;100.00
45541;BME280;31265;49.680;8.608;2023-12-04T02:13:53;100700.22;;;-5.27;100.00
45541;BME280;31265;49.680;8.608;2023-12-04T02:16:22;100699.34;;;-5.24;100.00
45541;BME280;31265;49.680;8.608;2023-12-04T02:18:51;100693.34;;;-5.19;100.00
45541;BME280;31265;49.680;8.608;2023-12-04T02:21:21;100694.72;;;-5.14;100.00
45541;BME280;31265;49.680;8.608;2023-12-04T02:23:51;100686.47;;;-5.10;100.00
45541;BME280;31265;49.680;8.608;2023-12-04T02:26:22;100688.00;;;-5.09;100.00
45541;BME280;31265;49.680;8.608;2023-12-04T02:28:53;100685.13;;;-5.06;100.00
45541;BME280;31265;49.680;8.608;2023-12-04T02:31:24;100679.88;;;-5.09;100.00
45541;BME280;31265;49.680;8.608;2023-12-04T02:33:55;100672.50;;;-5.09;100.00
45541;BME280;31265;49.680;8.608;2023-12-04T02:36:24;100673.25;;;-5.08;100.00
45541;BME280;31265;49.680;8.608;2023-12-04T02:38:55;100664.81;;;-5.10;100.00
45541;BME280;31265;49.680;8.608;2023-12-04T02:41:23;100664.97;;;-5.14;100.00
45541;BME280;31265;49.680;8.608;2023-12-04T02:43:52;100668.09;;;-5.15;100.00
45541;BME280;31265;49.680;8.608;2023-12-04T02:46:20;100661.78;;;-5.22;100.00
45541;BME280;31265;49.680;8.608;2023-12-04T02:48:49;100654.53;;;-5.25;100.00
45541;BME280;31265;49.680;8.608;2023-12-04T02:51:17;100649.28;;;-5.28;100.00
45541;BME280;31265;49.680;8.608;2023-12-04T02:53:45;100639.19;;;-5.28;100.00
45541;BME280;31265;49.680;8.608;2023-12-04T02:56:15;100646.09;;;-5.27;100.00
45541;BME280;31265;49.680;8.608;2023-12-04T02:58:45;100640.69;;;-5.27;100.00
45541;BME280;31265;49.680;8.608;2023-12-04T03:01:13;100634.53;;;-5.27;100.00
45541;BME280;31265;49.680;8.608;2023-12-04T03:03:41;100625.22;;;-5.26;100.00
45541;BME280;31265;49.680;8.608;2023-12-04T03:06:10;100622.84;;;-5.24;100.00
45541;BME280;31265;49.680;8.608;2023-12-04T03:08:38;100614.13;;;-5.19;100.00
45541;BME280;31265;49.680;8.608;2023-12-04T03:11:06;100601.94;;;-5.14;100.00
45541;BME280;31265;49.680;8.608;2023-12-04T03:13:35;100603.00;;;-5.12;100.00
45541;BME280;31265;49.680;8.608;2023-12-04T03:16:04;100595.97;;;-5.09;100.00
45541;BME280;31265;49.680;8.608;2023-12-04T03:18:32;100586.50;;;-5.05;100.00
45541;BME280;31265;49.680;8.608;2023-12-04T03:21:00;100585.47;;;-4.98;100.00
45541;BME280;31265;49.680;8.608;2023-12-04T03:23:28;100579.16;;;-4.95;100.00
45541;BME280;31265;49.680;8.608;2023-12-04T03:25:56;100582.16;;;-4.93;100.00
45541;BME280;31265;49.680;8.608;2023-12-04T03:28:25;100578.13;;;-4.88;100.00
45541;BME280;31265;49.680;8.608;2023-12-04T03:30:54;100574.81;;;-4.83;100.00
45541;BME280;31265;49.680;8.608;2023-12-04T03:33:22;100566.56;;;-4.80;100.00
45541;BME280;31265;49.680;8.608;2023-12-04T03:35:51;100568.06;;;-4.79;100.00
45541;BME280;31265;49.680;8.608;2023-12-04T03:38:19;100563.53;;;-4.72;100.00
45541;BME280;31265;49.680;8.608;2023-12-04T03:40:47;100558.28;;;-4.76;100.00
45541;BME280;31265;49.680;8.608;2023-12-04T03:43:15;100551.38;;;-4.77;100.00
45541;BME280;31265;49.680;8.608;2023-12-04T03:45:43;100557.66;;;-4.80;100.00
45541;BME280;31265;49.680;8.608;2023-12-04T03:48:13;100549.25;;;-4.82;100.00
45541;BME280;31265;49.680;8.608;2023-12-04T03:50:41;100552.72;;;-4.82;100.00
45541;BME280;31265;49.680;8.608;2023-12-04T03:53:09;100545.06;;;-4.74;100.00
45541;BME280;31265;49.680;8.608;2023-12-04T03:55:37;100545.34;;;-4.81;100.00
45541;BME280;31265;49.680;8.608;2023-12-04T03:58:05;100537.66;;;-4.83;100.00
45541;BME280;31265;49.680;8.608;2023-12-04T04:00:33;100532.09;;;-4.88;100.00
45541;BME280;31265;49.680;8.608;2023-12-04T04:03:02;100528.66;;;-4.89;100.00
45541;BME280;31265;49.680;8.608;2023-12-04T04:05:32;100521.28;;;-4.79;100.00
45541;BME280;31265;49.680;8.608;2023-12-04T04:08:01;100534.66;;;-4.85;100.00
45541;BME280;31265;49.680;8.608;2023-12-04T04:10:29;100531.66;;;-4.87;100.00
45541;BME280;31265;49.680;8.608;2023-12-04T04:12:58;100537.34;;;-4.85;100.00
45541;BME280;31265;49.680;8.608;2023-12-04T04:15:26;100538.56;;;-4.86;100.00
45541;BME280;31265;49.680;8.608;2023-12-04T04:17:54;100530.88;;;-4.87;100.00
45541;BME280;31265;49.680;8.608;2023-12-04T04:20:23;100523.97;;;-4.88;100.00
45541;BME280;31265;49.680;8.608;2023-12-04T04:22:52;100520.53;;;-4.89;100.00
45541;BME280;31265;49.680;8.608;2023-12-04T04:25:21;100522.03;;;-4.88;100.00
45541;BME280;31265;49.680;8.608;2023-12-04T04:27:51;100525.66;;;-4.82;100.00
45541;BME280;31265;49.680;8.608;2023-12-04T04:30:19;100524.00;;;-4.79;100.00
45541;BME280;31265;49.680;8.608;2023-12-04T04:32:47;100534.22;;;-4.74;100.00
45541;BME280;31265;49.680;8.608;2023-12-04T04:35:15;100545.19;;;-4.68;100.00
45541;BME280;31265;49.680;8.608;2023-12-04T04:37:43;100545.66;;;-4.61;100.00
45541;BME280;31265;49.680;8.608;2023-12-04T04:40:16;100541.44;;;-4.62;100.00
45541;BME280;31265;49.680;8.608;2023-12-04T04:42:44;100534.50;;;-4.63;100.00
45541;BME280;31265;49.680;8.608;2023-12-04T04:45:16;100524.44;;;-4.62;100.00
45541;BME280;31265;49.680;8.608;2023-12-04T04:47:44;100520.22;;;-4.63;100.00
45541;BME280;31265;49.680;8.608;2023-12-04T04:50:12;100521.28;;;-4.61;100.00
45541;BME280;31265;49.680;8.608;2023-12-04T04:52:41;100512.84;;;-4.63;100.00
45541;BME280;31265;49.680;8.608;2023-12-04T04:55:09;100516.47;;;-4.57;100.00
45541;BME280;31265;49.680;8.608;2023-12-04T04:57:58;100520.84;;;-4.50;100.00
45541;BME280;31265;49.680;8.608;2023-12-04T05:00:27;100523.53;;;-4.50;100.00
45541;BME280;31265;49.680;8.608;2023-12-04T05:02:56;100516.16;;;-4.49;100.00
45541;BME280;31265;49.680;8.608;2023-12-04T05:05:24;100524.44;;;-4.53;100.00
45541;BME280;31265;49.680;8.608;2023-12-04T05:07:52;100522.63;;;-4.56;100.00
45541;BME280;31265;49.680;8.608;2023-12-04T05:10:20;100518.13;;;-4.59;100.00
45541;BME280;31265;49.680;8.608;2023-12-04T05:12:48;100506.06;;;-4.67;100.00
45541;BME280;31265;49.680;8.608;2023-12-04T05:15:18;100505.03;;;-4.70;100.00
45541;BME280;31265;49.680;8.608;2023-12-04T05:17:46;100506.84;;;-4.76;100.00
45541;BME280;31265;49.680;8.608;2023-12-04T05:20:14;100498.88;;;-4.80;100.00
45541;BME280;31265;49.680;8.608;2023-12-04T05:22:42;100502.03;;;-4.81;100.00
45541;BME280;31265;49.680;8.608;2023-12-04T05:25:10;100502.47;;;-4.83;100.00
45541;BME280;31265;49.680;8.608;2023-12-04T05:27:39;100503.69;;;-4.84;100.00
45541;BME280;31265;49.680;8.608;2023-12-04T05:30:07;100490.28;;;-4.87;100.00
45541;BME280;31265;49.680;8.608;2023-12-04T05:32:37;100490.00;;;-4.89;100.00
45541;BME280;31265;49.680;8.608;2023-12-04T05:35:05;100488.47;;;-4.90;100.00
45541;BME280;31265;49.680;8.608;2023-12-04T05:37:33;100492.41;;;-4.91;100.00
45541;BME280;31265;49.680;8.608;2023-12-04T05:40:02;100480.53;;;-4.94;100.00
45541;BME280;31265;49.680;8.608;2023-12-04T05:42:31;100475.56;;;-4.95;100.00
45541;BME280;31265;49.680;8.608;2023-12-04T05:44:59;100472.72;;;-4.92;100.00
45541;BME280;31265;49.680;8.608;2023-12-04T05:47:27;100469.22;;;-4.92;100.00
45541;BME280;31265;49.680;8.608;2023-12-04T05:49:57;100471.94;;;-4.92;100.00
45541;BME280;31265;49.680;8.608;2023-12-04T05:52:26;100464.13;;;-4.90;100.00
45541;BME280;31265;49.680;8.608;2023-12-04T05:54:54;100461.09;;;-4.92;100.00
45541;BME280;31265;49.680;8.608;2023-12-04T05:57:22;100465.91;;;-4.87;100.00
45541;BME280;31265;49.680;8.608;2023-12-04T05:59:50;100474.50;;;-4.89;100.00
45541;BME280;31265;49.680;8.608;2023-12-04T06:02:18;100480.81;;;-4.92;100.00
45541;BME280;31265;49.680;8.608;2023-12-04T06:04:46;100488.94;;;-4.92;100.00
45541;BME280;31265;49.680;8.608;2023-12-04T06:07:18;100493.91;;;-4.90;100.00
45541;BME280;31265;49.680;8.608;2023-12-04T06:09:46;100501.44;;;-4.94;100.00
45541;BME280;31265;49.680;8.608;2023-12-04T06:12:14;100510.31;;;-4.94;100.00
45541;BME280;31265;49.680;8.608;2023-12-04T06:14:42;100513.28;;;-5.01;100.00
45541;BME280;31265;49.680;8.608;2023-12-04T06:17:11;100501.09;;;-5.06;100.00
45541;BME280;31265;49.680;8.608;2023-12-04T06:19:39;100495.09;;;-5.10;100.00
45541;BME280;31265;49.680;8.608;2023-12-04T06:22:07;100481.41;;;-5.15;100.00
45541;BME280;31265;49.680;8.608;2023-12-04T06:24:38;100487.13;;;-5.13;100.00
45541;BME280;31265;49.680;8.608;2023-12-04T06:27:07;100486.06;;;-5.16;100.00
45541;BME280;31265;49.680;8.608;2023-12-04T06:29:36;100495.69;;;-5.15;100.00
45541;BME280;31265;49.680;8.608;2023-12-04T06:32:04;100485.59;;;-5.14;100.00
45541;BME280;31265;49.680;8.608;2023-12-04T06:34:33;100485.59;;;-5.14;100.00
45541;BME280;31265;49.680;8.608;2023-12-04T06:37:01;100484.84;;;-5.15;100.00
45541;BME280;31265;49.680;8.608;2023-12-04T06:39:31;100470.72;;;-5.10;100.00
45541;BME280;31265;49.680;8.608;2023-12-04T06:42:02;100455.09;;;-5.06;100.00
45541;BME280;31265;49.680;8.608;2023-12-04T06:44:31;100435.38;;;-4.97;100.00
45541;BME280;31265;49.680;8.608;2023-12-04T06:46:59;100422.03;;;-4.91;100.00
45541;BME280;31265;49.680;8.608;2023-12-04T06:49:29;100424.25;;;-4.81;100.00
45541;BME280;31265;49.680;8.608;2023-12-04T06:51:58;100407.41;;;-4.76;100.00
45541;BME280;31265;49.680;8.608;2023-12-04T06:54:27;100421.56;;;-4.71;100.00
45541;BME280;31265;49.680;8.608;2023-12-04T06:56:55;100414.31;;;-4.65;100.00
45541;BME280;31265;49.680;8.608;2023-12-04T06:59:25;100412.94;;;-4.61;100.00
45541;BME280;31265;49.680;8.608;2023-12-04T07:01:54;100402.25;;;-4.55;100.00
45541;BME280;31265;49.680;8.608;2023-12-04T07:04:22;100392.44;;;-4.53;100.00
45541;BME280;31265;49.680;8.608;2023-12-04T07:06:51;100388.84;;;-4.49;100.00
45541;BME280;31265;49.680;8.608;2023-12-04T07:09:19;100384.47;;;-4.47;100.00
45541;BME280;31265;49.680;8.608;2023-12-04T07:11:48;100378.88;;;-4.43;100.00
45541;BME280;31265;49.680;8.608;2023-12-04T07:14:16;100371.81;;;-4.41;100.00
45541;BME280;31265;49.680;8.608;2023-12-04T07:16:45;100363.06;;;-4.36;100.00
45541;BME280;31265;49.680;8.608;2023-12-04T07:19:13;100369.38;;;-4.29;100.00
45541;BME280;31265;49.680;8.608;2023-12-04T07:21:43;100359.09;;;-4.25;100.00
45541;BME280;31265;49.680;8.608;2023-12-04T07:24:11;100357.56;;;-4.17;100.00
45541;BME280;31265;49.680;8.608;2023-12-04T07:26:39;100358.31;;;-4.17;100.00
45541;BME280;31265;49.680;8.608;2023-12-04T07:29:07;100357.97;;;-4.09;100.00
45541;BME280;31265;49.680;8.608;2023-12-04T07:31:35;100361.56;;;-4.03;100.00
45541;BME280;31265;49.680;8.608;2023-12-04T07:34:05;100360.81;;;-4.04;100.00
45541;BME280;31265;49.680;8.608;2023-12-04T07:36:34;100365.31;;;-4.01;100.00
45541;BME280;31265;49.680;8.608;2023-12-04T07:39:02;100362.72;;;-3.95;100.00
45541;BME280;31265;49.680;8.608;2023-12-04T07:41:33;100364.06;;;-3.91;100.00
45541;BME280;31265;49.680;8.608;2023-12-04T07:44:01;100362.38;;;-3.88;100.00
45541;BME280;31265;49.680;8.608;2023-12-04T07:46:30;100359.94;;;-3.86;100.00
45541;BME280;31265;49.680;8.608;2023-12-04T07:48:58;100353.22;;;-3.91;100.00
45541;BME280;31265;49.680;8.608;2023-12-04T07:51:28;100365.81;;;-3.78;100.00
45541;BME280;31265;49.680;8.608;2023-12-04T07:53:56;100357.63;;;-3.54;100.00
45541;BME280;31265;49.680;8.608;2023-12-04T07:56:28;100361.28;;;-3.57;100.00
45541;BME280;31265;49.680;8.608;2023-12-04T07:58:57;100350.88;;;-3.59;100.00
45541;BME280;31265;49.680;8.608;2023-12-04T08:01:25;100356.59;;;-3.57;100.00
45541;BME280;31265;49.680;8.608;2023-12-04T08:03:53;100356.16;;;-3.55;100.00
45541;BME280;31265;49.680;8.608;2023-12-04T08:06:23;100358.97;;;-3.50;100.00
45541;BME280;31265;49.680;8.608;2023-12-04T08:08:52;100356.53;;;-3.48;100.00
45541;BME280;31265;49.680;8.608;2023-12-04T08:11:22;100357.75;;;-3.49;100.00
45541;BME280;31265;49.680;8.608;2023-12-04T08:13:50;100364.78;;;-3.42;100.00
45541;BME280;31265;49.680;8.608;2023-12-04T08:16:18;100364.31;;;-3.40;100.00
45541;BME280;31265;49.680;8.608;2023-12-04T08:18:47;100357.31;;;-3.32;100.00
45541;BME280;31265;49.680;8.608;2023-12-04T08:21:15;100342.94;;;-3.23;100.00
45541;BME280;31265;49.680;8.608;2023-12-04T08:23:43;100336.94;;;-3.13;100.00
45541;BME280;31265;49.680;8.608;2023-12-04T08:26:13;100332.75;;;-3.14;100.00
45541;BME280;31265;49.680;8.608;2023-12-04T08:28:42;100321.41;;;-3.12;100.00
45541;BME280;31265;49.680;8.608;2023-12-04T08:31:10;100322.53;;;-3.04;100.00
45541;BME280;31265;49.680;8.608;2023-12-04T08:33:38;100314.19;;;-3.00;100.00
45541;BME280;31265;49.680;8.608;2023-12-04T08:36:07;100314.56;;;-3.08;100.00
45541;BME280;31265;49.680;8.608;2023-12-04T08:38:35;100310.81;;;-3.10;100.00
45541;BME280;31265;49.680;8.608;2023-12-04T08:41:04;100291.81;;;-2.95;100.00
45541;BME280;31265;49.680;8.608;2023-12-04T08:43:36;100298.09;;;-2.89;100.00
45541;BME280;31265;49.680;8.608;2023-12-04T08:46:05;100294.31;;;-2.77;100.00
45541;BME280;31265;49.680;8.608;2023-12-04T08:48:34;100296.66;;;-2.70;100.00
45541;BME280;31265;49.680;8.608;2023-12-04T08:51:02;100304.53;;;-2.57;100.00
45541;BME280;31265;49.680;8.608;2023-12-04T08:53:31;100301.78;;;-2.42;100.00
45541;BME280;31265;49.680;8.608;2023-12-04T08:55:59;100293.03;;;-2.31;100.00
45541;BME280;31265;49.680;8.608;2023-12-04T08:58:28;100300.50;;;-2.26;100.00
45541;BME280;31265;49.680;8.608;2023-12-04T09:00:58;100308.34;;;-2.13;100.00
45541;BME280;31265;49.680;8.608;2023-12-04T09:03:26;100315.13;;;-2.03;100.00
45541;BME280;31265;49.680;8.608;2023-12-04T09:05:58;100308.84;;;-1.95;100.00
45541;BME280;31265;49.680;8.608;2023-12-04T09:08:27;100312.31;;;-1.94;100.00
45541;BME280;31265;49.680;8.608;2023-12-04T09:11:05;100315.09;;;-1.88;100.00
45541;BME280;31265;49.680;8.608;2023-12-04T09:13:37;100317.28;;;-1.92;100.00
45541;BME280;31265;49.680;8.608;2023-12-04T09:16:08;100312.31;;;-1.94;100.00
45541;BME280;31265;49.680;8.608;2023-12-04T09:18:36;100317.19;;;-1.98;100.00
45541;BME280;31265;49.680;8.608;2023-12-04T09:21:05;100310.66;;;-2.06;100.00
45541;BME280;31265;49.680;8.608;2023-12-04T09:23:35;100301.97;;;-1.90;100.00
45541;BME280;31265;49.680;8.608;2023-12-04T09:26:04;100301.28;;;-1.85;100.00
45541;BME280;31265;49.680;8.608;2023-12-04T09:28:32;100315.16;;;-1.83;100.00
45541;BME280;31265;49.680;8.608;2023-12-04T09:31:01;100316.88;;;-1.85;100.00
45541;BME280;31265;49.680;8.608;2023-12-04T09:33:30;100314.63;;;-1.87;100.00
45541;BME280;31265;49.680;8.608;2023-12-04T09:35:58;100321.94;;;-1.93;100.00
45541;BME280;31265;49.680;8.608;2023-12-04T09:38:28;100328.22;;;-1.87;100.00
45541;BME280;31265;49.680;8.608;2023-12-04T09:40:57;100322.31;;;-1.85;100.00
45541;BME280;31265;49.680;8.608;2023-12-04T09:43:28;100311.56;;;-1.95;100.00
45541;BME280;31265;49.680;8.608;2023-12-04T09:45:59;100322.72;;;-1.92;100.00
45541;BME280;31265;49.680;8.608;2023-12-04T09:48:29;100316.94;;;-2.00;100.00
45541;BME280;31265;49.680;8.608;2023-12-04T09:51:00;100318.53;;;-2.08;100.00
45541;BME280;31265;49.680;8.608;2023-12-04T09:53:29;100319.09;;;-2.04;100.00
45541;BME280;31265;49.680;8.608;2023-12-04T09:55:59;100300.63;;;-2.00;100.00
45541;BME280;31265;49.680;8.608;2023-12-04T09:58:27;100301.16;;;-1.96;100.00
45541;BME280;31265;49.680;8.608;2023-12-04T10:00:56;100299.03;;;-2.07;100.00
45541;BME280;31265;49.680;8.608;2023-12-04T10:03:25;100303.47;;;-2.09;100.00
45541;BME280;31265;49.680;8.608;2023-12-04T10:05:56;100302.38;;;-1.97;100.00
45541;BME280;31265;49.680;8.608;2023-12-04T10:08:24;100298.06;;;-1.83;100.00
45541;BME280;31265;49.680;8.608;2023-12-04T10:10:52;100295.03;;;-1.70;100.00
45541;BME280;31265;49.680;8.608;2023-12-04T10:13:22;100292.69;;;-1.57;100.00
45541;BME280;31265;49.680;8.608;2023-12-04T10:16:10;100301.88;;;-1.55;100.00
45541;BME280;31265;49.680;8.608;2023-12-04T10:18:39;100298.00;;;-1.48;100.00
45541;BME280;31265;49.680;8.608;2023-12-04T10:21:09;100286.41;;;-1.43;100.00
45541;BME280;31265;49.680;8.608;2023-12-04T10:23:45;100276.00;;;-1.44;100.00
45541;BME280;31265;49.680;8.608;2023-12-04T10:26:14;100303.53;;;-1.37;100.00
45541;BME280;31265;49.680;8.608;2023-12-04T10:28:58;100292.97;;;-1.29;100.00
45541;BME280;31265;49.680;8.608;2023-12-04T10:31:26;100289.78;;;-1.27;100.00
45541;BME280;31265;49.680;8.608;2023-12-04T10:33:59;100286.91;;;-1.18;100.00
45541;BME280;31265;49.680;8.608;2023-12-04T10:36:29;100299.53;;;-1.15;100.00
45541;BME280;31265;49.680;8.608;2023-12-04T10:38:58;100297.84;;;-1.13;100.00
45541;BME280;31265;49.680;8.608;2023-12-04T10:41:27;100297.38;;;-1.11;100.00
45541;BME280;31265;49.680;8.608;2023-12-04T10:43:55;100305.25;;;-1.13;100.00
45541;BME280;31265;49.680;8.608;2023-12-04T10:46:36;100289.19;;;-1.11;100.00
45541;BME280;31265;49.680;8.608;2023-12-04T10:49:05;100275.50;;;-1.17;100.00
45541;BME280;31265;49.680;8.608;2023-12-04T10:51:34;100275.91;;;-1.30;100.00
45541;BME280;31265;49.680;8.608;2023-12-04T10:54:03;100262.00;;;-1.32;100.00
45541;BME280;31265;49.680;8.608;2023-12-04T10:56:33;100260.72;;;-1.36;100.00
45541;BME280;31265;49.680;8.608;2023-12-04T10:59:04;100247.50;;;-1.49;100.00
45541;BME280;31265;49.680;8.608;2023-12-04T11:01:38;100247.22;;;-1.51;100.00
45541;BME280;31265;49.680;8.608;2023-12-04T11:04:08;100233.78;;;-1.60;100.00
45541;BME280;31265;49.680;8.608;2023-12-04T11:06:44;100232.59;;;-1.54;100.00
45541;BME280;31265;49.680;8.608;2023-12-04T11:09:16;100224.66;;;-1.57;100.00
45541;BME280;31265;49.680;8.608;2023-12-04T11:11:46;100219.09;;;-1.42;100.00
45541;BME280;31265;49.680;8.608;2023-12-04T11:14:17;100211.09;;;-1.52;100.00
45541;BME280;31265;49.680;8.608;2023-12-04T11:16:50;100198.22;;;-1.51;100.00
45541;BME280;31265;49.680;8.608;2023-12-04T11:19:23;100197.50;;;-1.52;100.00
45541;BME280;31265;49.680;8.608;2023-12-04T11:21:57;100184.00;;;-1.66;100.00
45541;BME280;31265;49.680;8.608;2023-12-04T11:24:26;100185.09;;;-1.58;100.00
45541;BME280;31265;49.680;8.608;2023-12-04T11:26:55;100180.59;;;-1.61;100.00
45541;BME280;31265;49.680;8.608;2023-12-04T11:29:24;100175.72;;;-1.52;100.00
45541;BME280;31265;49.680;8.608;2023-12-04T11:31:53;100172.59;;;-1.39;100.00
45541;BME280;31265;49.680;8.608;2023-12-04T11:34:21;100167.25;;;-1.27;100.00
45541;BME280;31265;49.680;8.608;2023-12-04T11:36:51;100153.22;;;-1.20;100.00
45541;BME280;31265;49.680;8.608;2023-12-04T11:39:21;100151.41;;;-1.29;100.00
45541;BME280;31265;49.680;8.608;2023-12-04T11:41:50;100142.06;;;-1.22;100.00
45541;BME280;31265;49.680;8.608;2023-12-04T11:44:18;100141.06;;;-1.19;100.00
45541;BME280;31265;49.680;8.608;2023-12-04T11:46:56;100127.25;;;-1.16;100.00
45541;BME280;31265;49.680;8.608;2023-12-04T11:49:28;100125.28;;;-1.15;100.00
45541;BME280;31265;49.680;8.608;2023-12-04T11:51:58;100121.84;;;-1.10;100.00
45541;BME280;31265;49.680;8.608;2023-12-04T11:54:29;100124.09;;;-1.03;100.00
45541;BME280;31265;49.680;8.608;2023-12-04T11:57:02;100115.75;;;-0.94;100.00
45541;BME280;31265;49.680;8.608;2023-12-04T11:59:48;100113.06;;;-0.82;100.00
45541;BME280;31265;49.680;8.608;2023-12-04T12:02:16;100104.44;;;-0.75;100.00
45541;BME280;31265;49.680;8.608;2023-12-04T12:04:45;100091.06;;;-0.73;100.00
45541;BME280;31265;49.680;8.608;2023-12-04T12:07:13;100089.06;;;-0.78;100.00
45541;BME280;31265;49.680;8.608;2023-12-04T12:09:44;100083.09;;;-0.88;100.00
45541;BME280;31265;49.680;8.608;2023-12-04T12:12:14;100077.63;;;-0.88;100.00
45541;BME280;31265;49.680;8.608;2023-12-04T12:14:43;100067.00;;;-0.80;100.00
45541;BME280;31265;49.680;8.608;2023-12-04T12:17:11;100054.91;;;-0.74;100.00
45541;BME280;31265;49.680;8.608;2023-12-04T12:19:41;100048.69;;;-0.74;100.00
45541;BME280;31265;49.680;8.608;2023-12-04T12:22:09;100043.78;;;-0.65;100.00
45541;BME280;31265;49.680;8.608;2023-12-04T12:24:37;100035.38;;;-0.61;100.00
45541;BME280;31265;49.680;8.608;2023-12-04T12:27:07;100019.28;;;-0.53;100.00
45541;BME280;31265;49.680;8.608;2023-12-04T12:29:36;100023.47;;;-0.63;100.00
45541;BME280;31265;49.680;8.608;2023-12-04T12:32:05;100003.44;;;-0.49;100.00
45541;BME280;31265;49.680;8.608;2023-12-04T12:34:33;100003.69;;;-0.47;100.00
45541;BME280;31265;49.680;8.608;2023-12-04T12:37:03;99994.00;;;-0.54;100.00
45541;BME280;31265;49.680;8.608;2023-12-04T12:39:33;99988.06;;;-0.63;100.00
45541;BME280;31265;49.680;8.608;2023-12-04T12:42:02;99982.84;;;-0.56;100.00
45541;BME280;31265;49.680;8.608;2023-12-04T12:44:38;99976.19;;;-0.49;100.00
45541;BME280;31265;49.680;8.608;2023-12-04T12:47:07;99976.16;;;-0.55;100.00
45541;BME280;31265;49.680;8.608;2023-12-04T12:49:35;99967.25;;;-0.67;100.00